sensor_id;sensor_type;location;lat;lon;timestamp;temperature;humidity
3562;DHT22;1795;52.074;4.754;2022-09-01T00:02:28;17.70;99.90
3562;DHT22;1795;52.074;4.754;2022-09-01T00:04:56;17.70;99.90
3562;DHT22;1795;52.074;4.754;2022-09-01T00:07:25;17.70;99.90
3562;DHT22;1795;52.074;4.754;2022-09-01T00:09:55;17.70;99.90
3562;DHT22;1795;52.074;4.754;2022-09-01T00:12:24;17.60;99.90
3562;DHT22;1795;52.074;4.754;2022-09-01T00:14:52;17.60;99.90
3562;DHT22;1795;52.074;4.754;2022-09-01T00:17:22;17.60;99.90
3562;DHT22;1795;52.074;4.754;2022-09-01T00:19:50;17.60;99.90
3562;DHT22;1795;52.074;4.754;2022-09-01T00:22:18;17.50;99.90
3562;DHT22;1795;52.074;4.754;2022-09-01T00:24:47;17.50;99.90
3562;DHT22;1795;52.074;4.754;2022-09-01T00:27:15;17.50;99.90
3562;DHT22;1795;52.074;4.754;2022-09-01T00:29:43;17.50;99.90
3562;DHT22;1795;52.074;4.754;2022-09-01T00:32:11;17.40;99.90
3562;DHT22;1795;52.074;4.754;2022-09-01T00:34:40;17.40;99.90
3562;DHT22;1795;52.074;4.754;2022-09-01T00:37:08;17.40;99.90
3562;DHT22;1795;52.074;4.754;2022-09-01T00:39:36;17.30;99.90
3562;DHT22;1795;52.074;4.754;2022-09-01T00:42:05;17.30;99.90
3562;DHT22;1795;52.074;4.754;2022-09-01T00:44:33;17.30;99.90
3562;DHT22;1795;52.074;4.754;2022-09-01T00:47:05;17.20;99.90
3562;DHT22;1795;52.074;4.754;2022-09-01T00:49:35;17.20;99.90
3562;DHT22;1795;52.074;4.754;2022-09-01T00:52:08;17.20;99.90
3562;DHT22;1795;52.074;4.754;2022-09-01T00:54:40;17.20;99.90
3562;DHT22;1795;52.074;4.754;2022-09-01T00:57:10;17.10;99.90
3562;DHT22;1795;52.074;4.754;2022-09-01T00:59:45;17.10;99.90
3562;DHT22;1795;52.074;4.754;2022-09-01T01:02:14;17.10;99.90
3562;DHT22;1795;52.074;4.754;2022-09-01T01:04:42;17.10;99.90
3562;DHT22;1795;52.074;4.754;2022-09-01T01:07:14;17.00;99.90
3562;DHT22;1795;52.074;4.754;2022-09-01T01:09:44;17.00;99.90
3562;DHT22;1795;52.074;4.754;2022-09-01T01:12:12;17.00;99.90
3562;DHT22;1795;52.074;4.754;2022-09-01T01:14:44;16.90;99.90
3562;DHT22;1795;52.074;4.754;2022-09-01T01:17:13;16.90;99.90
3562;DHT22;1795;52.074;4.754;2022-09-01T01:19:44;16.90;99.90
3562;DHT22;1795;52.074;4.754;2022-09-01T01:22:36;16.80;99.90
3562;DHT22;1795;52.074;4.754;2022-09-01T01:25:25;16.80;99.90
3562;DHT22;1795;52.074;4.754;2022-09-01T01:28:07;16.80;99.90
3562;DHT22;1795;52.074;4.754;2022-09-01T01:30:37;16.80;99.90
3562;DHT22;1795;52.074;4.754;2022-09-01T01:33:06;16.70;99.90
3562;DHT22;1795;52.074;4.754;2022-09-01T01:35:34;16.70;99.90
3562;DHT22;1795;52.074;4.754;2022-09-01T01:38:03;16.70;99.90
3562;DHT22;1795;52.074;4.754;2022-09-01T01:40:35;16.70;99.90
3562;DHT22;1795;52.074;4.754;2022-09-01T01:43:04;16.60;99.90
3562;DHT22;1795;52.074;4.754;2022-09-01T01:45:32;16.60;99.90
3562;DHT22;1795;52.074;4.754;2022-09-01T01:48:00;16.60;99.90
3562;DHT22;1795;52.074;4.754;2022-09-01T01:50:33;16.60;99.90
3562;DHT22;1795;52.074;4.754;2022-09-01T01:53:03;16.50;99.90
3562;DHT22;1795;52.074;4.754;2022-09-01T01:55:39;16.50;99.90
3562;DHT22;1795;52.074;4.754;2022-09-01T01:58:09;16.50;99.90
3562;DHT22;1795;52.074;4.754;2022-09-01T02:00:38;16.50;99.90
3562;DHT22;1795;52.074;4.754;2022-09-01T02:03:08;16.50;99.90
3562;DHT22;1795;52.074;4.754;2022-09-01T02:05:39;16.40;99.90
3562;DHT22;1795;52.074;4.754;2022-09-01T02:08:08;16.40;99.90
3562;DHT22;1795;52.074;4.754;2022-09-01T02:10:40;16.40;99.90
3562;DHT22;1795;52.074;4.754;2022-09-01T02:13:11;16.40;99.90
3562;DHT22;1795;52.074;4.754;2022-09-01T02:15:45;16.30;99.90
3562;DHT22;1795;52.074;4.754;2022-09-01T02:18:16;16.30;99.90
3562;DHT22;1795;52.074;4.754;2022-09-01T02:20:45;16.30;99.90
3562;DHT22;1795;52.074;4.754;2022-09-01T02:23:15;16.30;99.90
3562;DHT22;1795;52.074;4.754;2022-09-01T02:25:47;16.30;99.90
3562;DHT22;1795;52.074;4.754;2022-09-01T02:28:38;16.20;99.90
3562;DHT22;1795;52.074;4.754;2022-09-01T02:31:08;16.20;99.90
3562;DHT22;1795;52.074;4.754;2022-09-01T02:33:38;16.20;99.90
3562;DHT22;1795;52.074;4.754;2022-09-01T02:36:08;16.20;99.90
3562;DHT22;1795;52.074;4.754;2022-09-01T02:38:38;16.20;99.90
3562;DHT22;1795;52.074;4.754;2022-09-01T02:41:14;16.10;99.90
3562;DHT22;1795;52.074;4.754;2022-09-01T02:43:45;16.10;99.90
3562;DHT22;1795;52.074;4.754;2022-09-01T02:46:14;16.00;99.90
3562;DHT22;1795;52.074;4.754;2022-09-01T02:48:44;16.00;99.90
3562;DHT22;1795;52.074;4.754;2022-09-01T02:51:19;16.00;99.90
3562;DHT22;1795;52.074;4.754;2022-09-01T02:53:48;16.00;99.90
3562;DHT22;1795;52.074;4.754;2022-09-01T02:56:21;16.00;99.90
3562;DHT22;1795;52.074;4.754;2022-09-01T02:58:51;15.90;99.90
3562;DHT22;1795;52.074;4.754;2022-09-01T03:01:22;15.90;99.90
3562;DHT22;1795;52.074;4.754;2022-09-01T03:03:53;15.90;99.90
3562;DHT22;1795;52.074;4.754;2022-09-01T03:06:22;15.90;99.90
3562;DHT22;1795;52.074;4.754;2022-09-01T03:08:52;15.90;99.90
3562;DHT22;1795;52.074;4.754;2022-09-01T03:11:22;15.80;99.90
3562;DHT22;1795;52.074;4.754;2022-09-01T03:13:51;15.80;99.90
3562;DHT22;1795;52.074;4.754;2022-09-01T03:16:20;15.80;99.90
3562;DHT22;1795;52.074;4.754;2022-09-01T03:18:50;15.80;99.90
3562;DHT22;1795;52.074;4.754;2022-09-01T03:21:19;15.70;99.90
3562;DHT22;1795;52.074;4.754;2022-09-01T03:23:49;15.70;99.90
3562;DHT22;1795;52.074;4.754;2022-09-01T03:26:19;15.70;99.90
3562;DHT22;1795;52.074;4.754;2022-09-01T03:28:50;15.70;99.90
3562;DHT22;1795;52.074;4.754;2022-09-01T03:31:19;15.70;99.90
3562;DHT22;1795;52.074;4.754;2022-09-01T03:33:47;15.60;99.90
3562;DHT22;1795;52.074;4.754;2022-09-01T03:36:16;15.60;99.90
3562;DHT22;1795;52.074;4.754;2022-09-01T03:38:46;15.60;99.90
3562;DHT22;1795;52.074;4.754;2022-09-01T03:41:16;15.60;99.90
3562;DHT22;1795;52.074;4.754;2022-09-01T03:43:45;15.60;99.90
3562;DHT22;1795;52.074;4.754;2022-09-01T03:46:16;15.60;99.90
3562;DHT22;1795;52.074;4.754;2022-09-01T03:48:48;15.50;99.90
3562;DHT22;1795;52.074;4.754;2022-09-01T03:51:17;15.50;99.90
3562;DHT22;1795;52.074;4.754;2022-09-01T03:53:46;15.50;99.90
3562;DHT22;1795;52.074;4.754;2022-09-01T03:56:14;15.50;99.90
3562;DHT22;1795;52.074;4.754;2022-09-01T03:58:42;15.50;99.90
3562;DHT22;1795;52.074;4.754;2022-09-01T04:01:15;15.50;99.90
3562;DHT22;1795;52.074;4.754;2022-09-01T04:03:43;15.50;99.90
3562;DHT22;1795;52.074;4.754;2022-09-01T04:06:15;15.40;99.90
3562;DHT22;1795;52.074;4.754;2022-09-01T04:08:44;15.40;99.90
3562;DHT22;1795;52.074;4.754;2022-09-01T04:11:15;15.40;99.90
3562;DHT22;1795;52.074;4.754;2022-09-01T04:13:44;15.40;99.90
3562;DHT22;1795;52.074;4.754;2022-09-01T04:16:19;15.40;99.90
3562;DHT22;1795;52.074;4.754;2022-09-01T04:19:05;15.30;99.90
3562;DHT22;1795;52.074;4.754;2022-09-01T04:21:42;15.30;99.90
3562;DHT22;1795;52.074;4.754;2022-09-01T04:24:10;15.30;99.90
3562;DHT22;1795;52.074;4.754;2022-09-01T04:26:41;15.30;99.90
3562;DHT22;1795;52.074;4.754;2022-09-01T04:29:12;15.20;99.90
3562;DHT22;1795;52.074;4.754;2022-09-01T04:31:41;15.10;99.90
3562;DHT22;1795;52.074;4.754;2022-09-01T04:34:09;15.10;99.90
3562;DHT22;1795;52.074;4.754;2022-09-01T04:36:40;15.10;99.90
3562;DHT22;1795;52.074;4.754;2022-09-01T04:39:09;15.00;99.90
3562;DHT22;1795;52.074;4.754;2022-09-01T04:41:41;15.00;99.90
3562;DHT22;1795;52.074;4.754;2022-09-01T04:44:15;15.00;99.90
3562;DHT22;1795;52.074;4.754;2022-09-01T04:46:46;15.00;99.90
3562;DHT22;1795;52.074;4.754;2022-09-01T04:49:18;15.00;99.90
3562;DHT22;1795;52.074;4.754;2022-09-01T04:51:50;15.00;99.90
3562;DHT22;1795;52.074;4.754;2022-09-01T04:54:20;15.00;99.90
3562;DHT22;1795;52.074;4.754;2022-09-01T04:56:50;15.00;99.90
3562;DHT22;1795;52.074;4.754;2022-09-01T04:59:21;15.10;99.90
3562;DHT22;1795;52.074;4.754;2022-09-01T05:01:51;15.10;99.90
3562;DHT22;1795;52.074;4.754;2022-09-01T05:04:23;15.10;99.90
3562;DHT22;1795;52.074;4.754;2022-09-01T05:06:54;15.10;99.90
3562;DHT22;1795;52.074;4.754;2022-09-01T05:09:23;15.10;99.90
3562;DHT22;1795;52.074;4.754;2022-09-01T05:11:51;15.10;99.90
3562;DHT22;1795;52.074;4.754;2022-09-01T05:14:20;15.10;99.90
3562;DHT22;1795;52.074;4.754;2022-09-01T05:16:49;15.10;99.90
3562;DHT22;1795;52.074;4.754;2022-09-01T05:19:20;15.10;99.90
3562;DHT22;1795;52.074;4.754;2022-09-01T05:21:51;15.10;99.90
3562;DHT22;1795;52.074;4.754;2022-09-01T05:24:20;15.10;99.90
3562;DHT22;1795;52.074;4.754;2022-09-01T05:26:48;15.10;99.90
3562;DHT22;1795;52.074;4.754;2022-09-01T05:29:16;15.10;99.90
3562;DHT22;1795;52.074;4.754;2022-09-01T05:31:46;15.10;99.90
3562;DHT22;1795;52.074;4.754;2022-09-01T05:34:16;15.10;99.90
3562;DHT22;1795;52.074;4.754;2022-09-01T05:36:55;15.10;99.90
3562;DHT22;1795;52.074;4.754;2022-09-01T05:39:25;15.10;99.90
3562;DHT22;1795;52.074;4.754;2022-09-01T05:41:53;15.10;99.90
3562;DHT22;1795;52.074;4.754;2022-09-01T05:44:21;15.10;99.90
3562;DHT22;1795;52.074;4.754;2022-09-01T05:46:49;15.10;99.90
3562;DHT22;1795;52.074;4.754;2022-09-01T05:49:19;15.10;99.90
3562;DHT22;1795;52.074;4.754;2022-09-01T05:51:48;15.10;99.90
3562;DHT22;1795;52.074;4.754;2022-09-01T05:54:20;15.10;99.90
3562;DHT22;1795;52.074;4.754;2022-09-01T05:56:49;15.10;99.90
3562;DHT22;1795;52.074;4.754;2022-09-01T05:59:19;15.10;99.90
3562;DHT22;1795;52.074;4.754;2022-09-01T06:01:51;15.20;99.90
3562;DHT22;1795;52.074;4.754;2022-09-01T06:04:20;15.20;99.90
3562;DHT22;1795;52.074;4.754;2022-09-01T06:06:50;15.10;99.90
3562;DHT22;1795;52.074;4.754;2022-09-01T06:09:41;15.10;99.90
3562;DHT22;1795;52.074;4.754;2022-09-01T06:12:09;15.20;99.90
3562;DHT22;1795;52.074;4.754;2022-09-01T06:14:45;15.20;99.90
3562;DHT22;1795;52.074;4.754;2022-09-01T06:17:13;15.20;99.90
3562;DHT22;1795;52.074;4.754;2022-09-01T06:19:43;15.20;99.90
3562;DHT22;1795;52.074;4.754;2022-09-01T06:22:11;15.20;99.90
3562;DHT22;1795;52.074;4.754;2022-09-01T06:24:40;15.20;99.90
3562;DHT22;1795;52.074;4.754;2022-09-01T06:27:10;15.20;99.90
3562;DHT22;1795;52.074;4.754;2022-09-01T06:29:38;15.20;99.90
3562;DHT22;1795;52.074;4.754;2022-09-01T06:32:08;15.20;99.90
3562;DHT22;1795;52.074;4.754;2022-09-01T06:34:38;15.20;99.90
3562;DHT22;1795;52.074;4.754;2022-09-01T06:37:08;15.30;99.90
3562;DHT22;1795;52.074;4.754;2022-09-01T06:39:36;15.20;99.90
3562;DHT22;1795;52.074;4.754;2022-09-01T06:42:06;15.30;99.90
3562;DHT22;1795;52.074;4.754;2022-09-01T06:44:35;15.30;99.90
3562;DHT22;1795;52.074;4.754;2022-09-01T06:47:07;15.40;99.90
3562;DHT22;1795;52.074;4.754;2022-09-01T06:49:35;15.30;99.90
3562;DHT22;1795;52.074;4.754;2022-09-01T06:52:05;15.30;99.90
3562;DHT22;1795;52.074;4.754;2022-09-01T06:54:34;15.30;99.90
3562;DHT22;1795;52.074;4.754;2022-09-01T06:57:06;15.40;99.90
3562;DHT22;1795;52.074;4.754;2022-09-01T06:59:54;15.50;99.90
3562;DHT22;1795;52.074;4.754;2022-09-01T07:02:22;15.50;99.90
3562;DHT22;1795;52.074;4.754;2022-09-01T07:04:53;15.50;99.90
3562;DHT22;1795;52.074;4.754;2022-09-01T07:07:21;15.50;99.90
3562;DHT22;1795;52.074;4.754;2022-09-01T07:10:09;15.60;99.90
3562;DHT22;1795;52.074;4.754;2022-09-01T07:13:01;15.60;99.90
3562;DHT22;1795;52.074;4.754;2022-09-01T07:15:31;15.70;99.90
3562;DHT22;1795;52.074;4.754;2022-09-01T07:18:21;15.70;99.90
3562;DHT22;1795;52.074;4.754;2022-09-01T07:20:51;15.80;99.90
3562;DHT22;1795;52.074;4.754;2022-09-01T07:23:40;15.90;99.90
3562;DHT22;1795;52.074;4.754;2022-09-01T07:26:29;15.90;99.90
3562;DHT22;1795;52.074;4.754;2022-09-01T07:29:04;16.00;99.90
3562;DHT22;1795;52.074;4.754;2022-09-01T07:31:35;16.00;99.90
3562;DHT22;1795;52.074;4.754;2022-09-01T07:34:26;16.10;99.90
3562;DHT22;1795;52.074;4.754;2022-09-01T07:37:14;16.20;99.90
3562;DHT22;1795;52.074;4.754;2022-09-01T07:40:04;16.20;99.90
3562;DHT22;1795;52.074;4.754;2022-09-01T07:42:54;16.30;99.90
3562;DHT22;1795;52.074;4.754;2022-09-01T07:45:43;16.40;99.90
3562;DHT22;1795;52.074;4.754;2022-09-01T07:48:25;16.50;99.90
3562;DHT22;1795;52.074;4.754;2022-09-01T07:51:14;16.60;99.90
3562;DHT22;1795;52.074;4.754;2022-09-01T07:54:03;16.70;99.90
3562;DHT22;1795;52.074;4.754;2022-09-01T07:56:31;16.70;99.90
3562;DHT22;1795;52.074;4.754;2022-09-01T07:59:05;16.80;99.90
3562;DHT22;1795;52.074;4.754;2022-09-01T08:01:35;16.90;99.90
3562;DHT22;1795;52.074;4.754;2022-09-01T08:04:03;16.90;99.90
3562;DHT22;1795;52.074;4.754;2022-09-01T08:06:34;17.00;99.90
3562;DHT22;1795;52.074;4.754;2022-09-01T08:09:06;17.10;99.90
3562;DHT22;1795;52.074;4.754;2022-09-01T08:11:51;17.10;99.90
3562;DHT22;1795;52.074;4.754;2022-09-01T08:14:34;17.20;99.90
3562;DHT22;1795;52.074;4.754;2022-09-01T08:17:03;17.30;99.90
3562;DHT22;1795;52.074;4.754;2022-09-01T08:19:51;17.30;99.90
3562;DHT22;1795;52.074;4.754;2022-09-01T08:22:20;17.40;99.90
3562;DHT22;1795;52.074;4.754;2022-09-01T08:24:50;17.50;99.90
3562;DHT22;1795;52.074;4.754;2022-09-01T08:27:19;17.60;99.90
3562;DHT22;1795;52.074;4.754;2022-09-01T08:29:47;17.60;99.90
3562;DHT22;1795;52.074;4.754;2022-09-01T08:32:16;17.70;99.90
3562;DHT22;1795;52.074;4.754;2022-09-01T08:34:46;17.80;99.90
3562;DHT22;1795;52.074;4.754;2022-09-01T08:37:14;17.90;99.90
3562;DHT22;1795;52.074;4.754;2022-09-01T08:39:42;17.90;99.90
3562;DHT22;1795;52.074;4.754;2022-09-01T08:42:15;18.10;99.90
3562;DHT22;1795;52.074;4.754;2022-09-01T08:44:53;18.10;99.90
3562;DHT22;1795;52.074;4.754;2022-09-01T08:47:25;18.20;99.90
3562;DHT22;1795;52.074;4.754;2022-09-01T08:50:01;18.40;99.90
3562;DHT22;1795;52.074;4.754;2022-09-01T08:52:34;18.40;99.90
3562;DHT22;1795;52.074;4.754;2022-09-01T08:55:06;18.40;99.90
3562;DHT22;1795;52.074;4.754;2022-09-01T08:57:39;18.50;99.90
3562;DHT22;1795;52.074;4.754;2022-09-01T09:00:10;18.60;99.90
3562;DHT22;1795;52.074;4.754;2022-09-01T09:02:50;18.70;99.90
3562;DHT22;1795;52.074;4.754;2022-09-01T09:05:27;18.90;99.90
3562;DHT22;1795;52.074;4.754;2022-09-01T09:08:09;18.90;99.90
3562;DHT22;1795;52.074;4.754;2022-09-01T09:10:48;19.00;99.90
3562;DHT22;1795;52.074;4.754;2022-09-01T09:13:23;19.10;99.90
3562;DHT22;1795;52.074;4.754;2022-09-01T09:15:57;19.30;99.90
3562;DHT22;1795;52.074;4.754;2022-09-01T09:18:40;19.30;99.90
3562;DHT22;1795;52.074;4.754;2022-09-01T09:21:28;19.50;99.90
3562;DHT22;1795;52.074;4.754;2022-09-01T09:24:04;19.50;99.90
3562;DHT22;1795;52.074;4.754;2022-09-01T09:26:33;19.60;99.90
3562;DHT22;1795;52.074;4.754;2022-09-01T09:29:08;19.80;99.90
3562;DHT22;1795;52.074;4.754;2022-09-01T09:31:38;19.80;99.90
3562;DHT22;1795;52.074;4.754;2022-09-01T09:34:27;19.90;99.90
3562;DHT22;1795;52.074;4.754;2022-09-01T09:36:55;20.00;99.90
3562;DHT22;1795;52.074;4.754;2022-09-01T09:39:23;20.10;99.90
3562;DHT22;1795;52.074;4.754;2022-09-01T09:42:03;20.20;99.90
3562;DHT22;1795;52.074;4.754;2022-09-01T09:44:40;20.40;99.90
3562;DHT22;1795;52.074;4.754;2022-09-01T09:47:19;20.50;99.90
3562;DHT22;1795;52.074;4.754;2022-09-01T09:50:16;20.60;99.90
3562;DHT22;1795;52.074;4.754;2022-09-01T09:52:46;20.70;99.90
3562;DHT22;1795;52.074;4.754;2022-09-01T09:55:22;20.80;99.90
3562;DHT22;1795;52.074;4.754;2022-09-01T09:57:55;21.00;99.90
3562;DHT22;1795;52.074;4.754;2022-09-01T10:00:26;21.00;99.90
3562;DHT22;1795;52.074;4.754;2022-09-01T10:02:57;21.20;99.90
3562;DHT22;1795;52.074;4.754;2022-09-01T10:05:38;21.30;99.90
3562;DHT22;1795;52.074;4.754;2022-09-01T10:08:10;21.40;99.90
3562;DHT22;1795;52.074;4.754;2022-09-01T10:10:41;21.50;99.90
3562;DHT22;1795;52.074;4.754;2022-09-01T10:13:11;21.60;99.90
3562;DHT22;1795;52.074;4.754;2022-09-01T10:15:45;21.70;99.90
3562;DHT22;1795;52.074;4.754;2022-09-01T10:18:18;21.90;99.90
3562;DHT22;1795;52.074;4.754;2022-09-01T10:20:58;22.00;99.90
3562;DHT22;1795;52.074;4.754;2022-09-01T10:23:28;22.10;99.90
3562;DHT22;1795;52.074;4.754;2022-09-01T10:26:02;22.20;99.90
3562;DHT22;1795;52.074;4.754;2022-09-01T10:28:40;22.30;99.90
3562;DHT22;1795;52.074;4.754;2022-09-01T10:31:17;22.40;99.90
3562;DHT22;1795;52.074;4.754;2022-09-01T10:33:46;22.50;99.90
3562;DHT22;1795;52.074;4.754;2022-09-01T10:36:16;22.60;99.90
3562;DHT22;1795;52.074;4.754;2022-09-01T10:38:46;22.70;99.90
3562;DHT22;1795;52.074;4.754;2022-09-01T10:41:44;22.80;99.90
3562;DHT22;1795;52.074;4.754;2022-09-01T10:44:19;22.90;99.90
3562;DHT22;1795;52.074;4.754;2022-09-01T10:46:48;23.00;99.90
3562;DHT22;1795;52.074;4.754;2022-09-01T10:49:23;23.10;99.90
3562;DHT22;1795;52.074;4.754;2022-09-01T10:52:55;23.10;99.90
3562;DHT22;1795;52.074;4.754;2022-09-01T10:55:30;23.20;99.90
3562;DHT22;1795;52.074;4.754;2022-09-01T10:58:24;23.30;99.90
3562;DHT22;1795;52.074;4.754;2022-09-01T11:01:15;23.50;99.90
3562;DHT22;1795;52.074;4.754;2022-09-01T11:04:03;23.60;99.90
3562;DHT22;1795;52.074;4.754;2022-09-01T11:06:57;23.70;99.10
3562;DHT22;1795;52.074;4.754;2022-09-01T11:10:19;23.80;99.80
3562;DHT22;1795;52.074;4.754;2022-09-01T11:13:23;23.90;99.60
3562;DHT22;1795;52.074;4.754;2022-09-01T11:15:54;24.00;99.50
3562;DHT22;1795;52.074;4.754;2022-09-01T11:18:28;24.10;99.30
3562;DHT22;1795;52.074;4.754;2022-09-01T11:21:13;24.10;99.30
3562;DHT22;1795;52.074;4.754;2022-09-01T11:23:41;24.20;99.10
3562;DHT22;1795;52.074;4.754;2022-09-01T11:26:46;24.30;99.00
3562;DHT22;1795;52.074;4.754;2022-09-01T11:32:19;24.50;98.80
3562;DHT22;1795;52.074;4.754;2022-09-01T11:34:50;24.60;98.60
3562;DHT22;1795;52.074;4.754;2022-09-01T11:37:22;24.60;98.30
3562;DHT22;1795;52.074;4.754;2022-09-01T11:39:55;24.70;97.40
3562;DHT22;1795;52.074;4.754;2022-09-01T11:42:28;24.80;97.10
3562;DHT22;1795;52.074;4.754;2022-09-01T11:45:03;24.90;97.00
3562;DHT22;1795;52.074;4.754;2022-09-01T11:47:36;25.00;96.00
3562;DHT22;1795;52.074;4.754;2022-09-01T11:50:07;25.10;96.50
3562;DHT22;1795;52.074;4.754;2022-09-01T11:52:37;25.20;96.20
3562;DHT22;1795;52.074;4.754;2022-09-01T11:55:09;25.30;95.90
3562;DHT22;1795;52.074;4.754;2022-09-01T11:57:39;25.30;94.50
3562;DHT22;1795;52.074;4.754;2022-09-01T12:00:09;25.50;94.40
3562;DHT22;1795;52.074;4.754;2022-09-01T12:02:43;25.50;95.00
3562;DHT22;1795;52.074;4.754;2022-09-01T12:05:28;25.60;94.50
3562;DHT22;1795;52.074;4.754;2022-09-01T12:07:57;25.60;94.10
3562;DHT22;1795;52.074;4.754;2022-09-01T12:10:31;25.70;94.30
3562;DHT22;1795;52.074;4.754;2022-09-01T12:13:03;25.70;93.20
3562;DHT22;1795;52.074;4.754;2022-09-01T12:15:31;25.80;93.30
3562;DHT22;1795;52.074;4.754;2022-09-01T12:18:15;25.90;93.20
3562;DHT22;1795;52.074;4.754;2022-09-01T12:20:47;26.00;93.00
3562;DHT22;1795;52.074;4.754;2022-09-01T12:23:22;26.00;93.20
3562;DHT22;1795;52.074;4.754;2022-09-01T12:25:52;26.10;92.80
3562;DHT22;1795;52.074;4.754;2022-09-01T12:28:23;26.10;92.90
3562;DHT22;1795;52.074;4.754;2022-09-01T12:30:57;26.20;92.70
3562;DHT22;1795;52.074;4.754;2022-09-01T12:33:26;26.20;92.50
3562;DHT22;1795;52.074;4.754;2022-09-01T12:36:12;26.30;92.60
3562;DHT22;1795;52.074;4.754;2022-09-01T12:38:40;26.30;91.50
3562;DHT22;1795;52.074;4.754;2022-09-01T12:41:27;26.40;92.30
3562;DHT22;1795;52.074;4.754;2022-09-01T12:44:27;26.40;92.10
3562;DHT22;1795;52.074;4.754;2022-09-01T12:46:57;26.50;91.80
3562;DHT22;1795;52.074;4.754;2022-09-01T12:49:34;26.50;91.60
3562;DHT22;1795;52.074;4.754;2022-09-01T12:52:20;26.50;91.40
3562;DHT22;1795;52.074;4.754;2022-09-01T12:54:52;26.60;91.30
3562;DHT22;1795;52.074;4.754;2022-09-01T12:57:26;26.60;90.80
3562;DHT22;1795;52.074;4.754;2022-09-01T13:00:08;26.70;90.50
3562;DHT22;1795;52.074;4.754;2022-09-01T13:02:42;26.70;90.30
3562;DHT22;1795;52.074;4.754;2022-09-01T13:05:19;26.80;87.80
3562;DHT22;1795;52.074;4.754;2022-09-01T13:07:47;26.80;88.90
3562;DHT22;1795;52.074;4.754;2022-09-01T13:10:15;26.90;89.70
3562;DHT22;1795;52.074;4.754;2022-09-01T13:12:44;26.90;90.00
3562;DHT22;1795;52.074;4.754;2022-09-01T13:15:13;27.00;90.00
3562;DHT22;1795;52.074;4.754;2022-09-01T13:17:41;27.00;90.20
3562;DHT22;1795;52.074;4.754;2022-09-01T13:20:10;27.10;88.50
3562;DHT22;1795;52.074;4.754;2022-09-01T13:22:39;27.10;87.90
3562;DHT22;1795;52.074;4.754;2022-09-01T13:25:10;27.20;79.60
3562;DHT22;1795;52.074;4.754;2022-09-01T13:27:39;27.30;87.10
3562;DHT22;1795;52.074;4.754;2022-09-01T13:30:11;27.30;84.10
3562;DHT22;1795;52.074;4.754;2022-09-01T13:32:42;27.30;86.30
3562;DHT22;1795;52.074;4.754;2022-09-01T13:35:31;27.40;86.20
3562;DHT22;1795;52.074;4.754;2022-09-01T13:37:59;27.50;84.50
3562;DHT22;1795;52.074;4.754;2022-09-01T13:40:27;27.50;82.90
3562;DHT22;1795;52.074;4.754;2022-09-01T13:42:55;27.60;84.10
3562;DHT22;1795;52.074;4.754;2022-09-01T13:45:23;27.60;83.00
3562;DHT22;1795;52.074;4.754;2022-09-01T13:47:53;27.70;82.70
3562;DHT22;1795;52.074;4.754;2022-09-01T13:50:41;27.80;82.80
3562;DHT22;1795;52.074;4.754;2022-09-01T13:53:30;27.90;82.10
3562;DHT22;1795;52.074;4.754;2022-09-01T13:55:58;28.00;82.20
3562;DHT22;1795;52.074;4.754;2022-09-01T13:58:26;28.00;78.90
3562;DHT22;1795;52.074;4.754;2022-09-01T14:00:54;28.20;80.70
3562;DHT22;1795;52.074;4.754;2022-09-01T14:03:23;28.20;78.50
3562;DHT22;1795;52.074;4.754;2022-09-01T14:05:51;28.30;80.40
3562;DHT22;1795;52.074;4.754;2022-09-01T14:08:20;28.40;80.10
3562;DHT22;1795;52.074;4.754;2022-09-01T14:10:50;28.50;80.30
3562;DHT22;1795;52.074;4.754;2022-09-01T14:13:19;28.60;78.50
3562;DHT22;1795;52.074;4.754;2022-09-01T14:15:48;28.70;77.30
3562;DHT22;1795;52.074;4.754;2022-09-01T14:18:16;28.80;77.30
3562;DHT22;1795;52.074;4.754;2022-09-01T14:20:48;29.00;76.70
3562;DHT22;1795;52.074;4.754;2022-09-01T14:23:17;29.00;76.10
3562;DHT22;1795;52.074;4.754;2022-09-01T14:25:47;29.20;73.00
3562;DHT22;1795;52.074;4.754;2022-09-01T14:28:16;29.30;74.80
3562;DHT22;1795;52.074;4.754;2022-09-01T14:30:47;29.40;73.50
3562;DHT22;1795;52.074;4.754;2022-09-01T14:33:15;29.50;74.20
3562;DHT22;1795;52.074;4.754;2022-09-01T14:35:46;29.60;72.10
3562;DHT22;1795;52.074;4.754;2022-09-01T14:38:15;29.60;71.90
3562;DHT22;1795;52.074;4.754;2022-09-01T14:40:46;29.70;73.10
3562;DHT22;1795;52.074;4.754;2022-09-01T14:43:14;29.80;72.50
3562;DHT22;1795;52.074;4.754;2022-09-01T14:45:44;29.80;71.70
3562;DHT22;1795;52.074;4.754;2022-09-01T14:48:14;29.80;71.20
3562;DHT22;1795;52.074;4.754;2022-09-01T14:50:44;29.90;70.50
3562;DHT22;1795;52.074;4.754;2022-09-01T14:53:15;30.00;70.70
3562;DHT22;1795;52.074;4.754;2022-09-01T14:55:45;30.10;69.60
3562;DHT22;1795;52.074;4.754;2022-09-01T14:58:13;30.10;69.50
3562;DHT22;1795;52.074;4.754;2022-09-01T15:00:41;30.20;68.40
3562;DHT22;1795;52.074;4.754;2022-09-01T15:03:10;30.30;69.00
3562;DHT22;1795;52.074;4.754;2022-09-01T15:05:39;30.40;68.50
3562;DHT22;1795;52.074;4.754;2022-09-01T15:08:07;30.50;68.00
3562;DHT22;1795;52.074;4.754;2022-09-01T15:10:48;30.50;68.20
3562;DHT22;1795;52.074;4.754;2022-09-01T15:13:16;30.60;67.10
3562;DHT22;1795;52.074;4.754;2022-09-01T15:15:44;30.60;66.80
3562;DHT22;1795;52.074;4.754;2022-09-01T15:18:12;30.70;67.90
3562;DHT22;1795;52.074;4.754;2022-09-01T15:20:41;30.70;67.70
3562;DHT22;1795;52.074;4.754;2022-09-01T15:23:14;30.70;67.00
3562;DHT22;1795;52.074;4.754;2022-09-01T15:25:43;30.70;66.60
3562;DHT22;1795;52.074;4.754;2022-09-01T15:28:12;30.90;65.90
3562;DHT22;1795;52.074;4.754;2022-09-01T15:30:41;30.90;65.70
3562;DHT22;1795;52.074;4.754;2022-09-01T15:33:13;30.90;65.40
3562;DHT22;1795;52.074;4.754;2022-09-01T15:35:42;30.90;65.20
3562;DHT22;1795;52.074;4.754;2022-09-01T15:38:14;31.00;65.20
3562;DHT22;1795;52.074;4.754;2022-09-01T15:40:44;31.00;64.50
3562;DHT22;1795;52.074;4.754;2022-09-01T15:43:26;31.10;64.40
3562;DHT22;1795;52.074;4.754;2022-09-01T15:45:55;31.00;62.50
3562;DHT22;1795;52.074;4.754;2022-09-01T15:48:25;31.00;63.40
3562;DHT22;1795;52.074;4.754;2022-09-01T15:50:56;31.00;65.00
3562;DHT22;1795;52.074;4.754;2022-09-01T15:53:28;31.00;64.00
3562;DHT22;1795;52.074;4.754;2022-09-01T15:55:56;31.00;64.10
3562;DHT22;1795;52.074;4.754;2022-09-01T15:58:26;31.00;63.30
3562;DHT22;1795;52.074;4.754;2022-09-01T16:01:10;31.00;63.10
3562;DHT22;1795;52.074;4.754;2022-09-01T16:03:38;31.00;63.00
3562;DHT22;1795;52.074;4.754;2022-09-01T16:06:08;31.00;62.10
3562;DHT22;1795;52.074;4.754;2022-09-01T16:08:36;30.90;61.60
3562;DHT22;1795;52.074;4.754;2022-09-01T16:11:05;30.90;62.20
3562;DHT22;1795;52.074;4.754;2022-09-01T16:13:37;30.90;60.30
3562;DHT22;1795;52.074;4.754;2022-09-01T16:16:12;30.90;62.80
3562;DHT22;1795;52.074;4.754;2022-09-01T16:18:55;30.80;61.80
3562;DHT22;1795;52.074;4.754;2022-09-01T16:21:29;30.80;61.80
3562;DHT22;1795;52.074;4.754;2022-09-01T16:24:05;30.80;60.80
3562;DHT22;1795;52.074;4.754;2022-09-01T16:26:35;30.70;62.70
3562;DHT22;1795;52.074;4.754;2022-09-01T16:29:07;30.60;62.20
3562;DHT22;1795;52.074;4.754;2022-09-01T16:31:38;30.50;61.30
3562;DHT22;1795;52.074;4.754;2022-09-01T16:34:12;30.50;62.00
3562;DHT22;1795;52.074;4.754;2022-09-01T16:36:51;30.40;62.00
3562;DHT22;1795;52.074;4.754;2022-09-01T16:39:28;30.30;62.40
3562;DHT22;1795;52.074;4.754;2022-09-01T16:42:09;30.20;61.10
3562;DHT22;1795;52.074;4.754;2022-09-01T16:44:48;30.10;62.80